Time;durP1;ratioP1;P1;durP2;ratioP2;P2;SDS_P1;SDS_P2;PMS_P1;PMS_P2;Temp;Humidity;BMP_temperature;BMP_pressure;BME280_temperature;BME280_humidity;BME280_pressure;Samples;Min_cycle;Max_cycle;Signal;HPM_P1;HPM_P2
2023/07/14 00:02:30;;;;;;;;;;;;;;;22.76;47.69;96015.19;10388091;28;1912;-67
2023/07/14 00:07:30;;;;;;;;;;;;;;;22.62;47.78;96005.28;10406017;28;1861;-67
2023/07/14 00:12:30;;;;;;;;;;;;;;;22.59;48.17;95997.91;10405644;28;1988;-68
2023/07/14 00:17:31;;;;;;;;;;;;;;;22.65;48.09;96001.28;10365338;28;1096022;-67
2023/07/14 00:22:31;;;;;;;;;;;;;;;22.61;48.09;96005.56;10405462;28;2195;-66
2023/07/14 00:27:31;;;;;;;;;;;;;;;22.46;48.26;96003.81;10409330;28;2173;-68
2023/07/14 00:32:32;;;;;;;;;;;;;;;22.52;48.09;95999.28;10402748;28;2220;-66
2023/07/14 00:37:32;;;;;;;;;;;;;;;22.43;48.29;95995.66;10404401;28;1988;-65
2023/07/14 00:42:33;;;;;;;;;;;;;;;22.43;48.44;95998.31;10407350;28;4529;-67
2023/07/14 00:47:33;;;;;;;;;;;;;;;22.40;48.74;95998.88;10406555;28;1916;-67
2023/07/14 00:52:34;;;;;;;;;;;;;;;22.41;48.70;95995.16;10392958;28;2120;-67
2023/07/14 00:57:34;;;;;;;;;;;;;;;22.43;48.79;95993.03;10402847;28;1972;-67
2023/07/14 01:02:34;;;;;;;;;;;;;;;22.47;48.89;95984.28;10386840;28;2086;-68
2023/07/14 01:07:37;;;;;;;;;;;;;;;22.47;49.03;95986.91;10409221;28;2083;-68
2023/07/14 01:12:37;;;;;;;;;;;;;;;22.44;49.46;95984.81;10394679;28;1950;-68
2023/07/14 01:17:38;;;;;;;;;;;;;;;22.47;49.16;95972.91;10411284;28;2146;-67
2023/07/14 01:22:47;;;;;;;;;;;;;;;22.46;49.38;95974.00;10412478;28;1952;-66
2023/07/14 01:27:47;;;;;;;;;;;;;;;22.41;49.55;95984.59;10396755;28;1977;-66
2023/07/14 01:32:48;;;;;;;;;;;;;;;22.34;50.01;95969.06;10397698;28;1990;-67
2023/07/14 01:37:49;;;;;;;;;;;;;;;22.33;50.33;95964.88;10386042;28;1980;-67
2023/07/14 01:42:51;;;;;;;;;;;;;;;22.24;50.22;95968.38;10408167;28;4662;-67
2023/07/14 01:47:53;;;;;;;;;;;;;;;22.18;50.34;95965.00;10406265;28;2052;-65
2023/07/14 01:52:55;;;;;;;;;;;;;;;22.15;50.42;95968.22;10388021;28;1968;-65
2023/07/14 01:57:55;;;;;;;;;;;;;;;22.14;50.37;95963.19;10389876;28;1959;-65
2023/07/14 02:02:57;;;;;;;;;;;;;;;22.08;50.46;95959.81;10388661;28;2106;-65
2023/07/14 02:08:04;;;;;;;;;;;;;;;22.15;50.26;95959.50;10405704;28;2068;-65
2023/07/14 02:13:05;;;;;;;;;;;;;;;22.09;50.20;95966.66;10409917;28;1949;-64
2023/07/14 02:18:08;;;;;;;;;;;;;;;21.92;50.87;95966.31;10406195;28;2048;-67
2023/07/14 02:23:09;;;;;;;;;;;;;;;22.00;50.82;95964.91;10381920;28;1965;-65
2023/07/14 02:28:10;;;;;;;;;;;;;;;21.93;50.95;95962.59;10369348;28;2288;-65
2023/07/14 02:33:15;;;;;;;;;;;;;;;21.82;51.45;95961.88;10384669;28;1973;-64
2023/07/14 02:38:16;;;;;;;;;;;;;;;21.91;50.89;95961.31;10412772;28;1952;-65
2023/07/14 02:43:17;;;;;;;;;;;;;;;21.97;50.92;95963.59;10410929;28;4474;-65
2023/07/14 02:48:18;;;;;;;;;;;;;;;21.98;51.11;95964.41;10393606;28;2388;-65
2023/07/14 02:53:19;;;;;;;;;;;;;;;21.99;51.10;95955.44;10412617;28;1995;-65
2023/07/14 02:58:19;;;;;;;;;;;;;;;21.88;51.19;95952.84;10407216;28;1929;-65
2023/07/14 03:03:19;;;;;;;;;;;;;;;21.86;51.16;95956.84;10421030;28;2011;-66
2023/07/14 03:08:20;;;;;;;;;;;;;;;21.79;51.16;95951.06;10413167;28;2202;-65
2023/07/14 03:13:20;;;;;;;;;;;;;;;21.78;51.18;95949.50;10411296;28;1973;-66
2023/07/14 03:18:21;;;;;;;;;;;;;;;21.71;51.64;95956.94;10418710;28;2020;-65
2023/07/14 03:23:21;;;;;;;;;;;;;;;21.74;51.15;95953.75;10412923;28;1947;-65
2023/07/14 03:28:21;;;;;;;;;;;;;;;21.66;51.62;95949.03;10411395;28;2091;-65
2023/07/14 03:33:22;;;;;;;;;;;;;;;21.63;51.29;95952.25;10404759;28;6650;-65
2023/07/14 03:38:22;;;;;;;;;;;;;;;21.58;51.34;95945.16;10413490;28;5595;-65
2023/07/14 03:43:22;;;;;;;;;;;;;;;21.58;51.64;95953.06;10406692;28;5457;-66
2023/07/14 03:48:22;;;;;;;;;;;;;;;21.61;51.20;95949.09;10410504;28;2527;-66
2023/07/14 03:53:23;;;;;;;;;;;;;;;21.57;51.14;95948.84;10405323;28;5665;-66
2023/07/14 03:58:23;;;;;;;;;;;;;;;21.55;51.29;95955.47;10405036;28;2036;-66
2023/07/14 04:03:23;;;;;;;;;;;;;;;21.53;51.23;95950.47;10403535;28;1970;-66
2023/07/14 04:08:24;;;;;;;;;;;;;;;21.48;51.24;95945.22;10403254;28;5384;-66
2023/07/14 04:13:24;;;;;;;;;;;;;;;21.47;51.32;95935.75;10407634;28;2084;-66
2023/07/14 04:18:24;;;;;;;;;;;;;;;21.46;51.27;95936.00;10405253;28;1979;-66
2023/07/14 04:23:25;;;;;;;;;;;;;;;21.51;51.34;95928.84;10408238;28;1869;-66
2023/07/14 04:28:25;;;;;;;;;;;;;;;21.51;51.17;95934.13;10407105;28;1964;-65
2023/07/14 04:33:25;;;;;;;;;;;;;;;21.54;51.09;95932.78;10406279;28;1975;-66
2023/07/14 04:38:25;;;;;;;;;;;;;;;21.56;51.12;95933.28;10402015;28;1965;-65
2023/07/14 04:43:26;;;;;;;;;;;;;;;21.51;51.10;95925.44;10403204;28;6333;-65
2023/07/14 04:48:26;;;;;;;;;;;;;;;21.49;51.38;95920.44;10401951;28;2003;-65
2023/07/14 04:53:26;;;;;;;;;;;;;;;21.53;51.00;95921.47;10409208;28;2057;-66
2023/07/14 04:58:26;;;;;;;;;;;;;;;21.52;51.22;95909.31;10404349;28;2074;-66
2023/07/14 05:03:28;;;;;;;;;;;;;;;21.46;51.12;95913.06;10403546;28;2092;-66
2023/07/14 05:08:28;;;;;;;;;;;;;;;21.44;51.02;95914.38;10407453;28;1937;-66
2023/07/14 05:13:29;;;;;;;;;;;;;;;21.47;51.25;95911.22;10402611;28;1969;-66
2023/07/14 05:18:29;;;;;;;;;;;;;;;21.47;50.84;95911.22;10404765;28;1944;-66
2023/07/14 05:23:29;;;;;;;;;;;;;;;21.45;51.02;95902.78;10410992;28;1984;-66
2023/07/14 05:28:29;;;;;;;;;;;;;;;21.34;51.05;95907.34;10399922;28;2161;-66
2023/07/14 05:33:30;;;;;;;;;;;;;;;21.26;51.33;95893.94;10401746;28;2021;-67
2023/07/14 05:38:30;;;;;;;;;;;;;;;21.24;51.23;95896.06;10408399;28;2311;-66
2023/07/14 05:43:31;;;;;;;;;;;;;;;21.31;51.35;95896.56;10402003;28;2064;-65
2023/07/14 05:48:31;;;;;;;;;;;;;;;21.36;51.16;95885.97;10403260;28;2431;-66
2023/07/14 05:53:32;;;;;;;;;;;;;;;21.39;50.84;95874.88;10411999;28;1932;-66
2023/07/14 05:58:33;;;;;;;;;;;;;;;21.43;51.10;95879.31;10401461;28;1963;-65
2023/07/14 06:03:33;;;;;;;;;;;;;;;21.36;51.01;95883.34;10409455;28;2037;-65
2023/07/14 06:08:33;;;;;;;;;;;;;;;21.50;50.75;95882.44;10404857;28;2045;-66
2023/07/14 06:13:33;;;;;;;;;;;;;;;21.50;51.02;95884.28;10406509;28;1949;-64
2023/07/14 06:18:34;;;;;;;;;;;;;;;21.53;50.41;95886.38;10404890;28;1837;-64
2023/07/14 06:23:34;;;;;;;;;;;;;;;21.56;49.75;95888.44;10405290;28;2139;-64
2023/07/14 06:28:34;;;;;;;;;;;;;;;21.59;49.66;95883.44;10410917;28;2003;-65
2023/07/14 06:33:35;;;;;;;;;;;;;;;21.65;49.50;95879.69;10405840;28;2440;-66
2023/07/14 06:38:36;;;;;;;;;;;;;;;21.80;49.53;95874.25;10401084;28;2004;-67
2023/07/14 06:43:36;;;;;;;;;;;;;;;21.86;49.78;95867.13;10405600;28;5175;-62
2023/07/14 06:48:37;;;;;;;;;;;;;;;21.97;49.40;95859.91;10401379;28;2443;-63
2023/07/14 06:53:37;;;;;;;;;;;;;;;22.08;49.47;95853.44;10405449;28;1986;-66
2023/07/14 06:58:37;;;;;;;;;;;;;;;22.18;49.35;95848.03;10402642;28;1925;-66
2023/07/14 07:03:38;;;;;;;;;;;;;;;22.23;49.61;95855.91;10398534;28;1924;-66
2023/07/14 07:08:38;;;;;;;;;;;;;;;22.29;49.26;95845.03;10407351;28;1902;-66
2023/07/14 07:13:38;;;;;;;;;;;;;;;22.35;49.38;95849.16;10411113;28;2175;-65
2023/07/14 07:18:38;;;;;;;;;;;;;;;22.42;49.59;95849.59;10398427;28;1939;-66
2023/07/14 07:23:39;;;;;;;;;;;;;;;22.45;49.21;95846.41;10401376;28;1994;-65
2023/07/14 07:28:39;;;;;;;;;;;;;;;22.48;48.82;95855.63;10402043;28;2722;-65
2023/07/14 07:33:40;;;;;;;;;;;;;;;22.53;48.95;95848.41;10401650;28;1982;-65
2023/07/14 07:38:43;;;;;;;;;;;;;;;22.60;48.65;95837.53;10404634;28;2111;-64
2023/07/14 07:43:44;;;;;;;;;;;;;;;22.66;48.85;95833.75;10405690;28;5089;-67
2023/07/14 07:48:44;;;;;;;;;;;;;;;22.72;49.02;95823.91;10403727;28;2484;-67
2023/07/14 07:53:45;;;;;;;;;;;;;;;22.76;48.86;95827.53;10405270;28;1913;-67
2023/07/14 07:58:45;;;;;;;;;;;;;;;22.83;48.73;95830.63;10397440;28;1947;-67
2023/07/14 08:03:45;;;;;;;;;;;;;;;22.87;49.17;95829.78;10400717;28;1973;-67
2023/07/14 08:08:46;;;;;;;;;;;;;;;22.91;48.80;95812.28;10397691;28;1811;-68
2023/07/14 08:13:46;;;;;;;;;;;;;;;22.95;48.86;95804.53;10410378;28;1925;-67
2023/07/14 08:18:46;;;;;;;;;;;;;;;22.99;48.98;95795.75;10399869;28;1975;-67
2023/07/14 08:23:46;;;;;;;;;;;;;;;23.03;48.82;95790.66;10398420;28;1920;-68
2023/07/14 08:28:47;;;;;;;;;;;;;;;23.07;48.80;95791.66;10404171;28;3104;-69
2023/07/14 08:33:47;;;;;;;;;;;;;;;23.10;48.73;95788.47;10407679;28;1944;-67
2023/07/14 08:38:48;;;;;;;;;;;;;;;23.13;48.96;95787.88;10400270;28;1987;-67
2023/07/14 08:43:48;;;;;;;;;;;;;;;23.16;48.63;95785.44;10398330;28;5045;-69
2023/07/14 08:48:58;;;;;;;;;;;;;;;23.19;48.73;95781.44;10402072;28;2487;-69
2023/07/14 08:53:59;;;;;;;;;;;;;;;23.22;48.72;95767.63;10383226;28;2019;-68
2023/07/14 08:59:00;;;;;;;;;;;;;;;23.24;48.89;95770.78;10398372;28;2034;-68
2023/07/14 09:04:03;;;;;;;;;;;;;;;23.26;48.83;95763.34;10385470;28;2266;-67
2023/07/14 09:09:10;;;;;;;;;;;;;;;23.29;48.57;95757.44;10379467;28;2187;-68
2023/07/14 09:14:20;;;;;;;;;;;;;;;23.30;48.38;95764.31;10379078;28;1997;-68
2023/07/14 09:19:27;;;;;;;;;;;;;;;23.33;48.52;95763.75;10383633;28;2152;-67
2023/07/14 09:24:46;;;;;;;;;;;;;;;23.36;48.67;95765.84;10397374;28;1921;-69
2023/07/14 09:29:46;;;;;;;;;;;;;;;23.37;48.56;95751.53;10398471;28;1971;-69
2023/07/14 09:34:57;;;;;;;;;;;;;;;23.40;48.51;95754.38;10398646;28;2028;-66
2023/07/14 09:40:18;;;;;;;;;;;;;;;23.42;48.21;95754.88;10413019;28;5005;-68
2023/07/14 09:45:19;;;;;;;;;;;;;;;23.43;48.41;95750.38;10405886;28;2567;-68
2023/07/14 09:50:19;;;;;;;;;;;;;;;23.46;48.46;95749.78;10409683;28;2165;-71
2023/07/14 09:55:19;;;;;;;;;;;;;;;23.48;48.28;95734.41;10405541;28;2068;-69
2023/07/14 10:00:21;;;;;;;;;;;;;;;23.51;48.55;95740.97;10405092;28;1951;-69
2023/07/14 10:05:25;;;;;;;;;;;;;;;23.52;48.24;95732.75;10402141;28;2039;-69
2023/07/14 10:10:26;;;;;;;;;;;;;;;23.55;48.47;95729.53;10405960;28;2242;-69
2023/07/14 10:15:34;;;;;;;;;;;;;;;23.58;48.35;95717.56;10394906;28;1924;-69
2023/07/14 10:20:34;;;;;;;;;;;;;;;23.60;48.06;95716.19;10403699;28;2253;-68
2023/07/14 10:25:34;;;;;;;;;;;;;;;23.61;48.40;95712.47;10409296;28;1918;-69
2023/07/14 10:30:35;;;;;;;;;;;;;;;23.65;48.52;95702.09;10388343;28;1968;-63
2023/07/14 10:35:35;;;;;;;;;;;;;;;23.67;48.42;95700.72;10406912;28;1906;-63
2023/07/14 10:40:37;;;;;;;;;;;;;;;23.72;48.81;95687.38;10407096;28;1923;-71
2023/07/14 10:45:37;;;;;;;;;;;;;;;23.74;48.88;95685.22;10417925;28;2380;-67
2023/07/14 10:51:04;;;;;;;;;;;;;;;23.78;49.19;95683.53;10383830;28;1937;-69
2023/07/14 10:56:07;;;;;;;;;;;;;;;23.80;49.07;95673.44;10381888;28;1953;-70
2023/07/14 11:01:18;;;;;;;;;;;;;;;23.84;49.45;95657.78;10384803;28;2077;-66
2023/07/14 11:06:23;;;;;;;;;;;;;;;23.89;49.04;95652.34;10387771;28;1928;-67
2023/07/14 11:11:26;;;;;;;;;;;;;;;23.89;49.00;95634.63;10385987;28;1932;-67
2023/07/14 11:16:30;;;;;;;;;;;;;;;23.91;48.95;95634.31;10405352;28;2096;-67
2023/07/14 11:21:36;;;;;;;;;;;;;;;23.93;48.83;95632.16;10389182;28;2001;-68
2023/07/14 11:26:55;;;;;;;;;;;;;;;23.94;48.93;95626.59;10405688;28;2182;-68
2023/07/14 11:31:56;;;;;;;;;;;;;;;23.97;49.21;95631.25;10383498;28;1986;-67
2023/07/14 11:37:02;;;;;;;;;;;;;;;24.00;49.12;95627.25;10407549;28;1978;-68
2023/07/14 11:42:03;;;;;;;;;;;;;;;24.00;49.18;95614.81;10390011;28;5009;-68
2023/07/14 11:47:03;;;;;;;;;;;;;;;24.01;49.19;95611.06;10401004;28;2502;-69
2023/07/14 11:52:11;;;;;;;;;;;;;;;24.04;48.92;95615.81;10400201;28;1956;-68
2023/07/14 11:57:16;;;;;;;;;;;;;;;24.06;48.93;95602.25;10406942;28;1960;-69
2023/07/14 12:02:27;;;;;;;;;;;;;;;24.06;49.00;95591.66;10402976;28;1947;-69
2023/07/14 12:07:28;;;;;;;;;;;;;;;24.07;48.97;95590.59;10404955;28;2218;-68
2023/07/14 12:12:30;;;;;;;;;;;;;;;24.08;48.73;95592.94;10400216;28;1968;-69
2023/07/14 12:17:36;;;;;;;;;;;;;;;24.10;48.83;95592.63;10411241;28;2062;-69
2023/07/14 12:22:39;;;;;;;;;;;;;;;24.10;48.62;95582.81;10405893;28;2041;-68
2023/07/14 12:27:41;;;;;;;;;;;;;;;24.10;48.70;95582.81;10397393;28;1984;-68
2023/07/14 12:32:41;;;;;;;;;;;;;;;24.11;48.40;95575.66;10406690;28;1960;-68
2023/07/14 12:37:41;;;;;;;;;;;;;;;24.12;48.55;95572.72;10397838;28;2018;-68
2023/07/14 12:42:42;;;;;;;;;;;;;;;24.12;48.57;95567.41;10413619;28;5091;-68
2023/07/14 12:47:44;;;;;;;;;;;;;;;24.14;48.37;95562.59;10388019;28;2466;-68
2023/07/14 12:52:47;;;;;;;;;;;;;;;24.14;48.24;95552.00;10402105;28;1991;-68
2023/07/14 12:57:47;;;;;;;;;;;;;;;24.15;48.45;95553.56;10404035;28;2014;-68
2023/07/14 13:02:47;;;;;;;;;;;;;;;24.16;48.19;95555.13;10412590;28;2292;-69
2023/07/14 13:07:49;;;;;;;;;;;;;;;24.18;48.30;95546.88;10406711;28;2354;-68
2023/07/14 13:12:50;;;;;;;;;;;;;;;24.19;48.58;95535.97;10389954;28;2074;-68
2023/07/14 13:17:50;;;;;;;;;;;;;;;24.19;48.41;95533.34;10411068;28;1996;-68
2023/07/14 13:23:03;;;;;;;;;;;;;;;24.19;48.57;95525.38;10393819;28;1963;-68
2023/07/14 13:28:39;;;;;;;;;;;;;;;24.20;48.25;95529.63;10403705;28;2084;-68
2023/07/14 13:33:39;;;;;;;;;;;;;;;24.22;48.21;95524.00;10354991;28;2360;-68
2023/07/14 13:38:40;;;;;;;;;;;;;;;24.23;48.33;95520.28;10406709;28;1945;-68
2023/07/14 13:43:40;;;;;;;;;;;;;;;24.23;48.38;95513.09;10387574;28;5076;-68
2023/07/14 13:48:42;;;;;;;;;;;;;;;24.24;48.06;95514.69;10401868;28;2495;-68
2023/07/14 13:53:42;;;;;;;;;;;;;;;24.25;48.41;95518.88;10401212;28;2214;-66
2023/07/14 13:58:44;;;;;;;;;;;;;;;24.27;48.37;95518.59;10402945;28;2049;-67
2023/07/14 14:03:45;;;;;;;;;;;;;;;24.30;48.31;95509.28;10389650;28;2428;-72
2023/07/14 14:08:45;;;;;;;;;;;;;;;24.31;48.36;95503.66;10399850;28;1984;-67
2023/07/14 14:13:45;;;;;;;;;;;;;;;24.32;48.74;95502.56;10402008;28;1964;-67
2023/07/14 14:18:48;;;;;;;;;;;;;;;24.34;48.45;95497.75;10395739;28;2238;-66
2023/07/14 14:23:48;;;;;;;;;;;;;;;24.35;48.40;95493.25;10395952;28;1901;-67
2023/07/14 14:28:48;;;;;;;;;;;;;;;24.36;48.38;95492.94;10379995;28;1984;-67
2023/07/14 14:33:49;;;;;;;;;;;;;;;24.39;48.30;95494.19;10411636;28;2088;-66
2023/07/14 14:38:49;;;;;;;;;;;;;;;24.39;48.67;95488.91;10399830;28;1897;-66
2023/07/14 14:43:52;;;;;;;;;;;;;;;24.41;48.52;95481.44;10403355;28;5082;-66
2023/07/14 14:48:52;;;;;;;;;;;;;;;24.42;48.62;95472.41;10403358;28;2511;-66
2023/07/14 14:53:52;;;;;;;;;;;;;;;24.41;48.45;95455.72;10407376;28;1995;-67
2023/07/14 14:58:53;;;;;;;;;;;;;;;24.44;48.49;95449.78;10406547;28;2445;-68
2023/07/14 15:03:54;;;;;;;;;;;;;;;24.44;48.66;95449.03;10383513;28;1962;-68
2023/07/14 15:08:54;;;;;;;;;;;;;;;24.46;48.62;95444.22;10406703;28;1961;-67
2023/07/14 15:13:54;;;;;;;;;;;;;;;24.47;48.58;95433.31;10411688;28;1979;-68
2023/07/14 15:18:55;;;;;;;;;;;;;;;24.48;48.71;95418.97;10391850;28;1933;-70
2023/07/14 15:23:55;;;;;;;;;;;;;;;24.49;48.65;95414.44;10414420;28;1956;-66
2023/07/14 15:28:57;;;;;;;;;;;;;;;24.51;48.70;95417.56;10410014;28;2035;-66
2023/07/14 15:33:57;;;;;;;;;;;;;;;24.51;48.75;95404.31;10411248;28;1987;-65
2023/07/14 15:38:58;;;;;;;;;;;;;;;24.53;48.79;95410.09;10402110;28;1868;-66
2023/07/14 15:43:59;;;;;;;;;;;;;;;24.54;48.98;95406.38;10407403;28;5287;-67
2023/07/14 15:48:59;;;;;;;;;;;;;;;24.54;48.62;95409.03;10406799;28;2628;-64
2023/07/14 15:54:00;;;;;;;;;;;;;;;24.56;48.86;95401.53;10404373;28;1961;-67
2023/07/14 15:59:00;;;;;;;;;;;;;;;24.56;48.65;95383.78;10381955;28;1977;-66
2023/07/14 16:04:01;;;;;;;;;;;;;;;24.57;48.67;95384.53;10397073;28;2120;-68
2023/07/14 16:09:01;;;;;;;;;;;;;;;24.57;48.78;95379.25;10381481;28;1976;-69
2023/07/14 16:14:02;;;;;;;;;;;;;;;24.57;48.71;95369.44;10403739;28;1945;-70
2023/07/14 16:19:02;;;;;;;;;;;;;;;24.59;48.73;95371.75;10413628;28;1992;-70
2023/07/14 16:24:03;;;;;;;;;;;;;;;24.59;48.77;95366.47;10405387;28;1917;-74
2023/07/14 16:29:03;;;;;;;;;;;;;;;24.59;48.91;95358.50;10404137;28;2104;-72
2023/07/14 16:34:05;;;;;;;;;;;;;;;24.60;48.68;95365.38;10399764;28;1973;-71
2023/07/14 16:39:17;;;;;;;;;;;;;;;24.61;48.63;95356.34;10409344;28;1959;-71
2023/07/14 16:44:17;;;;;;;;;;;;;;;24.60;48.63;95357.44;10405131;28;5192;-71
2023/07/14 16:49:18;;;;;;;;;;;;;;;24.62;48.65;95355.25;10407801;28;2229;-73
2023/07/14 16:54:24;;;;;;;;;;;;;;;24.62;48.45;95360.56;10405022;28;2357;-71
2023/07/14 16:59:25;;;;;;;;;;;;;;;24.62;48.43;95356.03;10400856;28;2070;-72
2023/07/14 17:04:25;;;;;;;;;;;;;;;24.63;48.33;95357.59;10396233;28;2068;-71
2023/07/14 17:09:25;;;;;;;;;;;;;;;24.62;48.50;95357.91;10396105;28;1869;-73
2023/07/14 17:14:26;;;;;;;;;;;;;;;24.63;48.34;95354.94;10403947;28;1971;-72
2023/07/14 17:19:26;;;;;;;;;;;;;;;24.63;48.51;95368.19;10390828;28;1993;-71
2023/07/14 17:24:27;;;;;;;;;;;;;;;24.63;48.34;95360.25;10402384;28;2020;-72
2023/07/14 17:29:30;;;;;;;;;;;;;;;24.64;48.54;95361.81;10403951;28;2224;-74
2023/07/14 17:34:30;;;;;;;;;;;;;;;24.65;48.69;95359.94;10404868;28;2273;-72
2023/07/14 17:39:30;;;;;;;;;;;;;;;24.65;48.57;95359.94;10405218;28;2273;-72
2023/07/14 17:44:30;;;;;;;;;;;;;;;24.64;48.28;95353.88;10405918;28;5053;-72
2023/07/14 17:49:31;;;;;;;;;;;;;;;24.66;48.60;95350.91;10409745;28;2358;-73
2023/07/14 17:54:32;;;;;;;;;;;;;;;24.66;48.69;95361.50;10403838;28;1972;-74
2023/07/14 17:59:33;;;;;;;;;;;;;;;24.67;48.47;95368.34;10403160;28;1912;-73
2023/07/14 18:04:34;;;;;;;;;;;;;;;24.66;48.57;95370.25;10419938;28;1904;-73
2023/07/14 18:09:34;;;;;;;;;;;;;;;24.66;48.67;95370.25;10414758;28;1913;-73
2023/07/14 18:14:34;;;;;;;;;;;;;;;24.67;48.52;95373.66;10409956;28;2075;-73
2023/07/14 18:19:35;;;;;;;;;;;;;;;24.67;48.62;95373.66;10405935;28;1972;-74
2023/07/14 18:24:35;;;;;;;;;;;;;;;24.67;48.55;95371.00;10411133;28;1984;-73
2023/07/14 18:29:36;;;;;;;;;;;;;;;24.67;48.49;95368.34;10388597;28;1889;-74
2023/07/14 18:34:36;;;;;;;;;;;;;;;24.68;48.56;95369.94;10415873;28;2008;-73
2023/07/14 18:39:36;;;;;;;;;;;;;;;24.68;48.58;95370.72;10401011;28;2042;-73
2023/07/14 18:44:37;;;;;;;;;;;;;;;24.68;48.51;95370.72;10410712;28;2444;-75
2023/07/14 18:49:37;;;;;;;;;;;;;;;24.69;48.37;95366.97;10407704;28;2083;-74
2023/07/14 18:54:39;;;;;;;;;;;;;;;24.69;48.61;95366.97;10412227;28;1955;-73
2023/07/14 18:59:39;;;;;;;;;;;;;;;24.69;48.43;95366.97;10405395;28;2159;-73
2023/07/14 19:04:40;;;;;;;;;;;;;;;24.70;48.54;95368.53;10414930;28;2101;-73
2023/07/14 19:09:40;;;;;;;;;;;;;;;24.70;48.46;95373.84;10395558;28;1976;-73
2023/07/14 19:14:40;;;;;;;;;;;;;;;24.70;48.28;95371.19;10413543;28;2205;-74
2023/07/14 19:19:41;;;;;;;;;;;;;;;24.71;48.52;95379.94;10415812;28;1983;-73
2023/07/14 19:24:41;;;;;;;;;;;;;;;24.71;48.48;95380.69;10411082;28;1948;-73
2023/07/14 19:29:41;;;;;;;;;;;;;;;24.72;48.54;95384.13;10414058;28;1940;-74
2023/07/14 19:34:47;;;;;;;;;;;;;;;24.72;48.44;95392.06;10395801;28;1970;-73
2023/07/14 19:39:49;;;;;;;;;;;;;;;24.71;48.25;95393.19;10403000;28;4923;-73
2023/07/14 19:44:49;;;;;;;;;;;;;;;24.72;48.41;95402.69;10396551;28;2483;-73
2023/07/14 19:49:51;;;;;;;;;;;;;;;24.72;48.35;95408.75;10410935;28;1984;-73
2023/07/14 19:54:51;;;;;;;;;;;;;;;24.71;48.53;95401.88;10405389;28;2007;-73
2023/07/14 19:59:52;;;;;;;;;;;;;;;24.73;48.43;95413.00;10393172;28;2025;-73
2023/07/14 20:04:54;;;;;;;;;;;;;;;24.72;48.43;95411.41;10409522;28;1956;-73
2023/07/14 20:09:54;;;;;;;;;;;;;;;24.73;48.34;95409.56;10411592;28;2001;-73
2023/07/14 20:14:54;;;;;;;;;;;;;;;24.73;48.52;95401.59;10405308;28;2056;-73
2023/07/14 20:19:55;;;;;;;;;;;;;;;24.73;48.44;95402.41;10414223;28;1912;-73
2023/07/14 20:24:55;;;;;;;;;;;;;;;24.73;48.47;95405.03;10409536;28;1893;-73
2023/07/14 20:29:55;;;;;;;;;;;;;;;24.72;48.32;95408.75;10403235;28;2059;-73
2023/07/14 20:35:00;;;;;;;;;;;;;;;24.74;48.35;95416.44;10400648;28;2131;-73
2023/07/14 20:40:00;;;;;;;;;;;;;;;24.74;48.36;95411.13;10403846;28;5247;-73
2023/07/14 20:45:00;;;;;;;;;;;;;;;24.74;48.35;95408.47;10406768;28;2463;-73
2023/07/14 20:50:02;;;;;;;;;;;;;;;24.75;48.33;95407.41;10407346;28;1933;-76
2023/07/14 20:55:04;;;;;;;;;;;;;;;24.75;48.28;95410.06;10415838;28;2075;-73
2023/07/14 21:00:07;;;;;;;;;;;;;;;24.74;48.41;95408.47;10394685;28;1900;-73
2023/07/14 21:05:08;;;;;;;;;;;;;;;24.75;48.23;95404.75;10409435;28;1842;-72
2023/07/14 21:10:12;;;;;;;;;;;;;;;24.75;48.30;95413.47;10406266;28;1866;-74
2023/07/14 21:15:13;;;;;;;;;;;;;;;24.75;48.30;95418.00;10419597;28;1882;-73
2023/07/14 21:20:14;;;;;;;;;;;;;;;24.75;48.19;95421.41;10410177;28;1886;-76
2023/07/14 21:25:14;;;;;;;;;;;;;;;24.75;48.26;95426.72;10407743;28;1894;-74
2023/07/14 21:30:15;;;;;;;;;;;;;;;24.75;48.20;95432.03;10406510;28;1929;-73
2023/07/14 21:35:17;;;;;;;;;;;;;;;24.75;48.49;95428.63;10405247;28;2321;-73
2023/07/14 21:40:18;;;;;;;;;;;;;;;24.76;48.20;95427.50;10407704;28;4973;-73
2023/07/14 21:45:19;;;;;;;;;;;;;;;24.76;48.21;95427.50;10407310;28;2495;-70
2023/07/14 21:50:19;;;;;;;;;;;;;;;24.77;48.14;95424.53;10410194;28;1864;-68
2023/07/14 21:55:19;;;;;;;;;;;;;;;24.77;48.06;95431.75;10409476;28;1967;-66
2023/07/14 22:00:21;;;;;;;;;;;;;;;24.75;48.35;95429.38;10379191;28;1822;-66
2023/07/14 22:05:21;;;;;;;;;;;;;;;24.76;48.51;95430.16;10409202;28;1887;-67
2023/07/14 22:10:22;;;;;;;;;;;;;;;24.76;48.40;95427.50;10411120;28;1883;-68
2023/07/14 22:15:22;;;;;;;;;;;;;;;24.76;48.29;95430.94;10408895;28;2007;-64
2023/07/14 22:20:22;;;;;;;;;;;;;;;24.64;46.61;95427.28;10389384;28;1900;-67
2023/07/14 22:25:22;;;;;;;;;;;;;;;24.54;46.11;95430.22;10407276;28;1909;-66
2023/07/14 22:30:24;;;;;;;;;;;;;;;24.46;45.92;95420.38;10402274;28;1881;-66
2023/07/14 22:35:24;;;;;;;;;;;;;;;24.40;45.98;95426.91;10409094;28;1972;-66
2023/07/14 22:40:24;;;;;;;;;;;;;;;24.35;46.03;95427.00;10405437;28;5206;-65
2023/07/14 22:45:25;;;;;;;;;;;;;;;24.28;45.94;95424.78;10408841;28;2597;-66
2023/07/14 22:50:25;;;;;;;;;;;;;;;24.25;46.33;95426.19;10411756;28;1869;-65
2023/07/14 22:55:25;;;;;;;;;;;;;;;24.21;46.18;95425.22;10407567;28;2050;-67
2023/07/14 23:00:26;;;;;;;;;;;;;;;24.19;46.38;95430.03;10409419;28;2007;-67
2023/07/14 23:05:26;;;;;;;;;;;;;;;24.15;46.27;95433.63;10413868;28;1926;-67
2023/07/14 23:10:26;;;;;;;;;;;;;;;24.13;46.59;95428.59;10410415;28;1891;-68
2023/07/14 23:15:26;;;;;;;;;;;;;;;24.07;46.42;95424.53;10409222;28;1984;-71
2023/07/14 23:20:27;;;;;;;;;;;;;;;24.04;46.44;95427.81;10418149;28;2014;-65
2023/07/14 23:25:27;;;;;;;;;;;;;;;24.00;46.79;95426.03;10415059;28;2317;-67
2023/07/14 23:30:28;;;;;;;;;;;;;;;23.93;47.07;95434.38;10420816;28;1993;-67
2023/07/14 23:35:29;;;;;;;;;;;;;;;23.94;47.32;95435.19;10413125;28;2054;-68
2023/07/14 23:40:30;;;;;;;;;;;;;;;23.92;47.26;95432.06;10421214;28;4993;-67
2023/07/14 23:45:35;;;;;;;;;;;;;;;23.89;47.71;95433.44;10416878;28;2661;-67
2023/07/14 23:50:35;;;;;;;;;;;;;;;23.88;48.12;95439.81;10427467;28;1905;-67
2023/07/14 23:55:37;;;;;;;;;;;;;;;23.84;48.24;95435.44;10424431;28;1967;-66
